Time;durP1;ratioP1;P1;durP2;ratioP2;P2;SDS_P1;SDS_P2;PMS_P1;PMS_P2;Temp;Humidity;BMP_temperature;BMP_pressure;BME280_temperature;BME280_humidity;BME280_pressure;Samples;Min_cycle;Max_cycle;Signal;HPM_P1;HPM_P2
2021/11/26 00:00:26;;;;;;;9.60;4.10;;;7.80;99.90;;;;;;5020229;28;20213;-92
2021/11/26 00:03:01;;;;;;;14.67;4.37;;;7.80;99.90;;;;;;5020243;28;20237;-90
2021/11/26 00:05:34;;;;;;;10.33;4.07;;;7.80;99.90;;;;;;5018845;28;20494;-90
2021/11/26 00:08:06;;;;;;;6.13;3.87;;;7.80;99.90;;;;;;5018049;28;20202;-91
2021/11/26 00:10:48;;;;;;;7.30;3.57;;;7.80;99.90;;;;;;5017356;28;20632;-91
2021/11/26 00:13:37;;;;;;;6.17;3.90;;;7.80;99.90;;;;;;5032106;28;20233;-91
2021/11/26 00:16:15;;;;;;;8.13;3.63;;;7.80;99.90;;;;;;5018353;28;20209;-91
2021/11/26 00:18:57;;;;;;;5.27;3.33;;;7.80;99.90;;;;;;5021073;28;20213;-91
2021/11/26 00:21:30;;;;;;;10.27;3.50;;;7.80;99.90;;;;;;5020198;28;20232;-90
2021/11/26 00:24:03;;;;;;;5.60;3.60;;;7.80;99.90;;;;;;5019717;28;20643;-90
2021/11/26 00:26:36;;;;;;;7.80;4.43;;;7.80;99.90;;;;;;5018560;28;20315;-91
2021/11/26 00:29:09;;;;;;;9.67;4.10;;;7.80;99.90;;;;;;5025511;28;20213;-90
2021/11/26 00:31:42;;;;;;;6.37;3.83;;;7.70;99.90;;;;;;5032717;28;20266;-90
2021/11/26 00:34:19;;;;;;;6.93;4.40;;;7.70;99.90;;;;;;5029174;28;20232;-92
2021/11/26 00:36:52;;;;;;;7.03;3.70;;;7.70;99.90;;;;;;5009454;28;20197;-91
2021/11/26 00:39:25;;;;;;;5.53;4.17;;;7.60;99.90;;;;;;5026437;28;20225;-91
2021/11/26 00:41:59;;;;;;;6.70;4.13;;;7.60;99.90;;;;;;5028722;28;20204;-91
2021/11/26 00:44:31;;;;;;;4.40;4.00;;;7.50;99.90;;;;;;5030308;28;20570;-91
2021/11/26 00:47:04;;;;;;;6.67;3.97;;;7.60;99.90;;;;;;5033284;28;20218;-91
2021/11/26 00:49:44;;;;;;;5.90;3.97;;;7.60;99.90;;;;;;5034040;28;20233;-89
2021/11/26 00:52:16;;;;;;;6.47;4.03;;;7.50;99.90;;;;;;5025235;28;20197;-89
2021/11/26 00:54:48;;;;;;;6.20;3.87;;;7.50;99.90;;;;;;5030737;28;20247;-93
2021/11/26 00:57:20;;;;;;;5.20;3.83;;;7.50;99.90;;;;;;5023263;28;20217;-90
2021/11/26 00:59:53;;;;;;;11.30;3.83;;;7.50;99.90;;;;;;5052686;28;20296;-89
2021/11/26 01:02:26;;;;;;;5.97;3.43;;;7.50;99.90;;;;;;5038686;28;20220;-90
2021/11/26 01:05:01;;;;;;;5.53;3.93;;;7.50;99.90;;;;;;5028891;28;20213;-91
2021/11/26 01:07:34;;;;;;;4.90;3.50;;;7.50;99.90;;;;;;5028954;28;20198;-90
2021/11/26 01:10:09;;;;;;;6.57;3.20;;;7.40;99.90;;;;;;5028295;28;20206;-91
2021/11/26 01:12:43;;;;;;;5.50;3.20;;;7.40;99.90;;;;;;5031482;28;20634;-91
2021/11/26 01:15:19;;;;;;;3.33;2.80;;;7.40;99.90;;;;;;5026731;28;20248;-90
2021/11/26 01:17:54;;;;;;;4.93;3.17;;;7.40;99.90;;;;;;5029660;28;20204;-91
2021/11/26 01:20:34;;;;;;;5.50;2.93;;;7.40;99.90;;;;;;5044748;28;20585;-92
2021/11/26 01:23:10;;;;;;;7.10;3.60;;;7.50;99.90;;;;;;5048704;28;20201;-93
2021/11/26 01:25:44;;;;;;;5.73;3.37;;;7.50;99.90;;;;;;5045581;28;20193;-91
2021/11/26 01:28:16;;;;;;;4.37;3.30;;;7.50;99.90;;;;;;5051664;28;20266;-92
2021/11/26 01:30:50;;;;;;;6.00;3.50;;;7.40;99.90;;;;;;5047637;28;20216;-91
2021/11/26 01:33:25;;;;;;;6.00;3.40;;;7.30;99.90;;;;;;5055180;28;20217;-92
2021/11/26 01:36:02;;;;;;;3.17;2.73;;;7.30;99.90;;;;;;5052725;28;20278;-90
2021/11/26 01:38:37;;;;;;;4.20;3.00;;;7.30;99.90;;;;;;5039277;28;20216;-92
2021/11/26 01:41:11;;;;;;;4.40;3.17;;;7.30;99.90;;;;;;5042823;28;20208;-91
2021/11/26 01:43:43;;;;;;;5.37;3.43;;;7.20;99.90;;;;;;5043241;28;20212;-92
2021/11/26 01:46:16;;;;;;;4.43;3.20;;;7.30;99.90;;;;;;5039955;28;20204;-92
2021/11/26 01:48:49;;;;;;;3.60;3.23;;;7.30;99.90;;;;;;5043663;28;20208;-91
2021/11/26 01:51:23;;;;;;;6.23;3.40;;;7.20;99.90;;;;;;5038961;28;20205;-90
2021/11/26 01:53:55;;;;;;;5.50;4.27;;;7.20;99.90;;;;;;5039804;28;20220;-87
2021/11/26 01:56:28;;;;;;;4.90;4.10;;;7.20;99.90;;;;;;5039629;28;20212;-90
2021/11/26 01:59:01;;;;;;;5.80;4.13;;;7.30;99.90;;;;;;5047732;28;20200;-90
2021/11/26 02:01:34;;;;;;;5.57;4.17;;;7.30;99.90;;;;;;5056210;28;20216;-91
2021/11/26 02:04:08;;;;;;;4.37;3.93;;;7.30;99.90;;;;;;5056907;28;20193;-91
2021/11/26 02:06:44;;;;;;;7.30;4.00;;;7.30;99.90;;;;;;5050585;28;20208;-90
2021/11/26 02:09:16;;;;;;;5.97;4.13;;;7.30;99.90;;;;;;5049378;28;20220;-90
2021/11/26 02:11:49;;;;;;;5.43;4.63;;;7.30;99.90;;;;;;5046050;28;20216;-90
2021/11/26 02:14:22;;;;;;;8.60;4.80;;;7.30;99.90;;;;;;5047202;28;20283;-91
2021/11/26 02:16:57;;;;;;;6.87;4.50;;;7.30;99.90;;;;;;5043718;28;20201;-91
2021/11/26 02:19:39;;;;;;;10.73;4.73;;;7.30;99.90;;;;;;5048009;28;20716;-91
2021/11/26 02:22:15;;;;;;;7.97;4.73;;;7.30;99.90;;;;;;5046413;28;20264;-91
2021/11/26 02:24:48;;;;;;;7.30;4.03;;;7.30;99.90;;;;;;5049537;28;20212;-93
2021/11/26 02:27:24;;;;;;;4.40;3.90;;;7.30;99.90;;;;;;5051043;28;20207;-88
2021/11/26 02:29:57;;;;;;;4.20;3.50;;;7.30;99.90;;;;;;5049471;28;20185;-93
2021/11/26 02:32:31;;;;;;;6.67;4.13;;;7.20;99.90;;;;;;5049820;28;20219;-95
2021/11/26 02:35:04;;;;;;;4.27;3.40;;;7.20;99.90;;;;;;5038141;28;20225;-90
2021/11/26 02:37:40;;;;;;;3.87;2.93;;;7.20;99.90;;;;;;5029179;28;20233;-91
2021/11/26 02:40:17;;;;;;;7.37;3.60;;;7.20;99.90;;;;;;5030568;28;20209;-91
2021/11/26 02:42:53;;;;;;;81.93;21.07;;;7.20;99.90;;;;;;5041434;28;20215;-90
2021/11/26 02:45:29;;;;;;;7.63;4.10;;;7.20;99.90;;;;;;5048491;28;20198;-91
2021/11/26 02:48:03;;;;;;;11.77;7.97;;;7.30;99.90;;;;;;5049708;28;20307;-91
2021/11/26 02:50:37;;;;;;;5.37;3.97;;;7.30;99.90;;;;;;5049325;28;20187;-90
2021/11/26 02:53:16;;;;;;;10.27;5.70;;;7.40;99.90;;;;;;5051369;28;20216;-90
2021/11/26 02:55:50;;;;;;;7.33;3.50;;;7.20;99.90;;;;;;5049977;28;20217;-91
2021/11/26 02:58:26;;;;;;;5.60;3.27;;;7.30;99.90;;;;;;5051694;28;20213;-91
2021/11/26 03:01:02;;;;;;;5.63;3.63;;;7.20;99.90;;;;;;5051215;28;20228;-91
2021/11/26 03:03:36;;;;;;;6.90;3.50;;;7.20;99.90;;;;;;5053453;28;20261;-89
2021/11/26 03:06:14;;;;;;;5.60;2.67;;;7.20;99.90;;;;;;5053292;28;20237;-90
2021/11/26 03:08:53;;;;;;;7.20;3.80;;;7.20;99.90;;;;;;5056489;28;20205;-90
2021/11/26 03:11:29;;;;;;;4.40;3.27;;;7.10;99.90;;;;;;5055261;28;20272;-89
2021/11/26 03:14:14;;;;;;;4.17;2.90;;;7.10;99.90;;;;;;5307774;23;20305;-89
2021/11/26 03:16:48;;;;;;;4.60;2.70;;;7.10;99.90;;;;;;5116122;23;20234;-90
2021/11/26 03:19:23;;;;;;;3.67;2.73;;;7.00;99.90;;;;;;5000550;28;20231;-89
2021/11/26 03:21:58;;;;;;;6.53;2.67;;;7.00;99.90;;;;;;4998411;28;20245;-90
2021/11/26 03:24:36;;;;;;;4.50;2.77;;;7.00;99.90;;;;;;4993726;28;20271;-91
2021/11/26 03:27:09;;;;;;;3.53;2.20;;;7.10;99.90;;;;;;4996808;28;20220;-91
2021/11/26 03:29:45;;;;;;;4.60;3.07;;;7.00;99.90;;;;;;4995634;28;20199;-90
2021/11/26 03:32:17;;;;;;;3.50;2.83;;;7.10;99.90;;;;;;4996710;28;20273;-91
2021/11/26 03:34:52;;;;;;;4.00;2.70;;;7.10;99.90;;;;;;4980440;28;20212;-89
2021/11/26 03:37:26;;;;;;;4.27;2.90;;;7.10;99.90;;;;;;4979396;28;20230;-91
2021/11/26 03:40:04;;;;;;;5.53;3.07;;;7.10;99.90;;;;;;4982539;28;20261;-90
2021/11/26 03:42:37;;;;;;;3.40;2.57;;;7.10;99.90;;;;;;4994116;28;20290;-91
2021/11/26 03:45:12;;;;;;;4.67;3.07;;;7.20;99.90;;;;;;4993180;28;20228;-91
2021/11/26 03:47:45;;;;;;;10.40;3.60;;;7.20;99.90;;;;;;4973305;29;20202;-90
2021/11/26 03:50:18;;;;;;;7.70;3.30;;;7.20;99.90;;;;;;4972453;28;20215;-90
2021/11/26 03:52:51;;;;;;;3.87;2.80;;;7.30;99.90;;;;;;4974826;28;20218;-90
2021/11/26 03:55:30;;;;;;;5.37;3.47;;;7.30;99.90;;;;;;4973835;28;20234;-89
2021/11/26 03:58:02;;;;;;;4.50;3.40;;;7.30;99.90;;;;;;4969346;28;20226;-90
2021/11/26 04:00:36;;;;;;;9.63;3.77;;;7.30;99.90;;;;;;4980398;28;20672;-90
2021/11/26 04:03:09;;;;;;;5.80;3.70;;;7.30;99.90;;;;;;4992104;28;20226;-91
2021/11/26 04:05:42;;;;;;;5.40;3.93;;;7.30;99.90;;;;;;4982994;28;20642;-90
2021/11/26 04:08:15;;;;;;;5.07;3.70;;;7.30;99.90;;;;;;4981823;28;20320;-91
2021/11/26 04:11:00;;;;;;;5.80;3.93;;;7.30;99.90;;;;;;4993958;28;20206;-90
2021/11/26 04:13:32;;;;;;;6.07;3.60;;;7.30;99.90;;;;;;4999270;28;20195;-90
2021/11/26 04:16:05;;;;;;;6.87;3.97;;;7.40;99.90;;;;;;4999857;28;20233;-89
2021/11/26 04:18:41;;;;;;;6.63;4.77;;;7.30;99.90;;;;;;4999336;28;20217;-90
2021/11/26 04:21:15;;;;;;;4.57;3.93;;;7.40;99.90;;;;;;4998036;28;20265;-91
2021/11/26 04:23:47;;;;;;;5.50;4.70;;;7.30;99.90;;;;;;4996159;28;20233;-89
2021/11/26 04:26:23;;;;;;;7.50;4.60;;;7.40;99.90;;;;;;4990284;28;20217;-89
2021/11/26 04:28:56;;;;;;;9.23;5.00;;;7.40;99.90;;;;;;4993808;28;20273;-88
2021/11/26 04:31:29;;;;;;;6.80;4.57;;;7.40;99.90;;;;;;4978217;28;20211;-89
2021/11/26 04:34:03;;;;;;;5.40;4.30;;;7.40;99.90;;;;;;4994050;28;20579;-90
2021/11/26 04:36:39;;;;;;;6.70;4.10;;;7.50;99.90;;;;;;4993025;28;20230;-90
2021/11/26 04:39:12;;;;;;;8.60;4.57;;;7.50;99.90;;;;;;4992925;28;20211;-91
2021/11/26 04:42:03;;;;;;;4.67;3.90;;;7.50;99.90;;;;;;4995516;28;20203;-90
2021/11/26 04:52:39;;;;;;;5.37;2.97;;;7.40;99.90;;;;;;5027896;28;20224;-91
2021/11/26 04:55:15;;;;;;;4.77;3.30;;;7.40;99.90;;;;;;5030784;28;20232;-91
2021/11/26 04:57:51;;;;;;;3.30;2.63;;;7.50;99.90;;;;;;5032316;28;20207;-91
2021/11/26 05:00:24;;;;;;;5.60;3.30;;;7.50;99.90;;;;;;5027860;28;20197;-90
2021/11/26 05:02:56;;;;;;;5.13;3.30;;;7.50;99.90;;;;;;5028604;28;20246;-91
2021/11/26 05:05:29;;;;;;;3.17;2.80;;;7.50;99.90;;;;;;5021581;28;20232;-91
2021/11/26 05:08:01;;;;;;;4.17;3.10;;;7.50;99.90;;;;;;5027891;28;20213;-90
2021/11/26 05:10:34;;;;;;;3.37;2.67;;;7.60;99.90;;;;;;5030418;28;20724;-91
2021/11/26 05:13:12;;;;;;;3.20;2.60;;;7.60;99.90;;;;;;5020196;28;20221;-92
2021/11/26 05:15:46;;;;;;;4.03;2.90;;;7.60;99.90;;;;;;5026962;28;20194;-92
2021/11/26 05:18:23;;;;;;;2.87;2.40;;;7.50;99.90;;;;;;5010458;28;20206;-91
2021/11/26 05:20:56;;;;;;;3.37;2.80;;;7.50;99.90;;;;;;5010646;28;20231;-91
2021/11/26 05:23:29;;;;;;;3.33;2.60;;;7.60;99.90;;;;;;5009900;28;20207;-91
2021/11/26 05:26:01;;;;;;;3.10;2.47;;;7.60;99.90;;;;;;5008588;28;20209;-87
2021/11/26 05:28:36;;;;;;;3.20;2.90;;;7.50;99.90;;;;;;5031208;28;20209;-88
2021/11/26 05:31:08;;;;;;;3.33;3.03;;;7.50;99.90;;;;;;5030813;28;20271;-89
2021/11/26 05:33:40;;;;;;;4.33;3.00;;;7.50;99.90;;;;;;5017106;28;20204;-89
2021/11/26 05:36:12;;;;;;;4.10;3.27;;;7.50;99.90;;;;;;5023732;28;20226;-89
2021/11/26 05:38:45;;;;;;;5.70;3.60;;;7.50;99.90;;;;;;5023378;28;20271;-88
2021/11/26 05:41:19;;;;;;;4.80;3.40;;;7.60;99.90;;;;;;5016468;28;20268;-90
2021/11/26 05:43:54;;;;;;;3.37;2.83;;;7.60;99.90;;;;;;5017192;28;20209;-89
2021/11/26 05:46:26;;;;;;;3.17;2.77;;;7.60;99.90;;;;;;4999158;28;20221;-89
2021/11/26 05:49:00;;;;;;;3.60;2.53;;;7.60;99.90;;;;;;5039110;23;20278;-88
2021/11/26 05:51:32;;;;;;;2.90;2.30;;;7.70;99.90;;;;;;4996702;28;20222;-89
2021/11/26 05:54:05;;;;;;;4.63;2.73;;;7.70;99.90;;;;;;5013056;28;20232;-89
2021/11/26 05:56:39;;;;;;;3.50;2.50;;;7.70;99.90;;;;;;5021909;28;20234;-87
2021/11/26 05:59:14;;;;;;;2.83;2.20;;;7.70;99.90;;;;;;5021705;28;20217;-90
2021/11/26 06:01:46;;;;;;;4.30;3.00;;;7.70;99.90;;;;;;5017976;28;20232;-89
2021/11/26 06:04:18;;;;;;;4.73;3.50;;;7.70;99.90;;;;;;5017367;28;20317;-89
2021/11/26 06:06:50;;;;;;;4.23;2.77;;;7.70;99.90;;;;;;5012459;28;20201;-89
2021/11/26 06:09:21;;;;;;;3.80;2.70;;;7.70;99.90;;;;;;5019223;28;20570;-88
2021/11/26 06:11:54;;;;;;;4.00;3.00;;;7.70;99.90;;;;;;5017708;28;20213;-92
2021/11/26 06:14:30;;;;;;;5.27;3.50;;;7.80;99.90;;;;;;5000747;28;20220;-96
2021/11/26 06:17:02;;;;;;;5.67;3.30;;;7.80;99.90;;;;;;5022767;28;20289;-89
2021/11/26 06:19:35;;;;;;;5.00;3.00;;;7.80;99.90;;;;;;5040622;28;20291;-89
2021/11/26 06:22:07;;;;;;;5.57;3.20;;;7.70;99.90;;;;;;5047789;28;20219;-89
2021/11/26 06:24:44;;;;;;;4.53;3.10;;;7.70;99.90;;;;;;5046873;28;20193;-87
2021/11/26 06:27:25;;;;;;;5.10;3.27;;;7.70;99.90;;;;;;5055628;28;20218;-90
2021/11/26 06:30:01;;;;;;;4.60;3.37;;;7.70;99.90;;;;;;5056155;28;20222;-89
2021/11/26 06:32:33;;;;;;;4.53;3.77;;;7.70;99.90;;;;;;5043065;28;20207;-89
2021/11/26 06:35:06;;;;;;;3.77;2.90;;;7.70;99.90;;;;;;5051661;28;20207;-90
2021/11/26 06:37:39;;;;;;;3.83;3.20;;;7.70;99.90;;;;;;5019162;28;20220;-86
2021/11/26 06:40:14;;;;;;;4.03;3.53;;;7.80;99.90;;;;;;5022948;28;20263;-88
2021/11/26 06:42:49;;;;;;;3.77;3.10;;;7.80;99.90;;;;;;5015524;28;20213;-87
2021/11/26 06:45:23;;;;;;;4.67;3.23;;;7.80;99.90;;;;;;5017078;28;20209;-89
2021/11/26 06:47:56;;;;;;;4.50;3.63;;;7.90;99.90;;;;;;5033809;28;20286;-89
2021/11/26 06:50:29;;;;;;;4.50;4.03;;;7.80;99.90;;;;;;5035600;28;20220;-89
2021/11/26 06:53:03;;;;;;;5.93;5.03;;;7.80;99.90;;;;;;5037451;28;20212;-89
2021/11/26 06:55:36;;;;;;;5.10;4.60;;;7.80;99.90;;;;;;5036821;28;20215;-89
2021/11/26 06:58:10;;;;;;;7.60;5.27;;;7.80;99.90;;;;;;5026552;28;20327;-90
2021/11/26 07:00:48;;;;;;;8.97;5.70;;;7.70;99.90;;;;;;5036241;28;20203;-88
2021/11/26 07:03:21;;;;;;;7.17;5.27;;;7.70;99.90;;;;;;5037422;28;20286;-89
2021/11/26 07:05:53;;;;;;;6.50;5.13;;;7.70;99.90;;;;;;5033352;28;20213;-89
2021/11/26 07:08:27;;;;;;;5.87;5.00;;;7.70;99.90;;;;;;5039494;28;20215;-88
2021/11/26 07:11:01;;;;;;;5.97;5.33;;;7.70;99.90;;;;;;5040483;28;20247;-89
2021/11/26 07:13:38;;;;;;;8.10;5.30;;;7.70;99.90;;;;;;5040010;28;20211;-88
2021/11/26 07:16:13;;;;;;;5.93;5.23;;;7.70;99.90;;;;;;5039108;28;20692;-88
2021/11/26 07:18:48;;;;;;;7.03;5.37;;;7.60;99.90;;;;;;5041183;28;20581;-89
2021/11/26 07:21:22;;;;;;;7.67;5.43;;;7.60;99.90;;;;;;5040993;28;20215;-89
2021/11/26 07:23:57;;;;;;;6.83;5.80;;;7.70;99.90;;;;;;5041757;28;20208;-89
2021/11/26 07:26:33;;;;;;;6.60;5.80;;;7.70;99.90;;;;;;5052324;28;20205;-90
2021/11/26 07:29:07;;;;;;;7.97;5.73;;;7.60;99.90;;;;;;5053446;28;20200;-90
2021/11/26 07:31:43;;;;;;;6.77;5.20;;;7.60;99.90;;;;;;5051255;28;20237;-87
2021/11/26 07:34:20;;;;;;;9.07;5.43;;;7.60;99.90;;;;;;5040104;28;20240;-89
2021/11/26 07:36:55;;;;;;;6.13;4.60;;;7.70;99.90;;;;;;5039565;28;20208;-88
2021/11/26 07:39:36;;;;;;;6.20;5.23;;;7.70;99.90;;;;;;5020763;28;20209;-89
2021/11/26 07:42:11;;;;;;;5.97;4.40;;;7.70;99.90;;;;;;5021244;28;20205;-89
2021/11/26 07:44:45;;;;;;;5.77;5.00;;;7.80;99.90;;;;;;5020043;28;20218;-89
2021/11/26 07:47:20;;;;;;;6.27;4.70;;;7.70;99.90;;;;;;5017233;28;20205;-88
2021/11/26 07:49:54;;;;;;;6.07;4.80;;;7.70;99.90;;;;;;5019113;28;20568;-89
2021/11/26 07:52:26;;;;;;;6.13;4.83;;;7.70;99.90;;;;;;5018849;28;20209;-88
2021/11/26 07:55:02;;;;;;;7.03;4.50;;;7.70;99.90;;;;;;5016751;28;20228;-89
2021/11/26 07:57:35;;;;;;;6.20;4.97;;;7.80;99.90;;;;;;5019179;28;20224;-89
2021/11/26 08:00:12;;;;;;;8.60;5.10;;;7.70;99.90;;;;;;5021398;28;20727;-89
2021/11/26 08:02:47;;;;;;;8.40;4.83;;;7.70;99.90;;;;;;5019504;28;20201;-89
2021/11/26 08:05:19;;;;;;;5.40;4.87;;;7.70;99.90;;;;;;5018337;28;20213;-89
2021/11/26 08:07:52;;;;;;;5.73;4.73;;;7.70;99.90;;;;;;5018154;28;20362;-88
2021/11/26 08:10:25;;;;;;;5.20;4.37;;;7.70;99.90;;;;;;5019666;28;20246;-89
2021/11/26 08:12:58;;;;;;;5.93;4.67;;;7.70;99.90;;;;;;5019709;28;20255;-88
2021/11/26 08:15:31;;;;;;;6.27;4.70;;;7.70;99.90;;;;;;5017394;28;20276;-88
2021/11/26 08:18:07;;;;;;;5.60;4.93;;;7.80;99.90;;;;;;5022263;28;20232;-90
2021/11/26 08:20:39;;;;;;;4.40;3.73;;;7.70;99.90;;;;;;5045031;28;20254;-87
2021/11/26 08:23:11;;;;;;;6.10;4.30;;;7.70;99.90;;;;;;5038193;28;20216;-89
2021/11/26 08:25:44;;;;;;;6.97;4.30;;;7.70;99.90;;;;;;5037529;28;20232;-89
2021/11/26 08:28:16;;;;;;;6.13;4.50;;;7.70;99.90;;;;;;5037959;28;20209;-89
2021/11/26 08:30:49;;;;;;;4.90;4.10;;;7.70;99.90;;;;;;5037618;28;20222;-89
2021/11/26 08:33:26;;;;;;;5.00;3.87;;;7.70;99.90;;;;;;5041755;28;20226;-88
2021/11/26 08:35:58;;;;;;;5.70;4.60;;;7.70;99.90;;;;;;5037356;28;20197;-89
2021/11/26 08:38:30;;;;;;;6.87;4.60;;;7.70;99.90;;;;;;5039481;28;20261;-89
2021/11/26 08:41:02;;;;;;;5.53;4.47;;;7.70;99.90;;;;;;5054470;28;20247;-89
2021/11/26 08:43:34;;;;;;;4.73;4.23;;;7.70;99.90;;;;;;5055905;28;20228;-88
2021/11/26 08:46:06;;;;;;;5.63;4.70;;;7.80;99.90;;;;;;5053497;28;20224;-89
2021/11/26 08:48:41;;;;;;;5.67;4.90;;;7.80;99.90;;;;;;5051908;28;20260;-89
2021/11/26 08:51:13;;;;;;;5.73;5.13;;;7.80;99.90;;;;;;5039510;28;20215;-89
2021/11/26 08:53:46;;;;;;;6.37;4.93;;;7.80;99.90;;;;;;5038656;28;20213;-88
2021/11/26 08:56:21;;;;;;;6.43;5.80;;;7.80;99.90;;;;;;5037604;28;20231;-88
2021/11/26 08:58:53;;;;;;;6.23;5.40;;;7.80;99.90;;;;;;5039047;28;20253;-88
2021/11/26 09:01:33;;;;;;;6.77;6.00;;;7.90;99.90;;;;;;5041514;28;20307;-89
2021/11/26 09:04:09;;;;;;;6.90;6.00;;;7.90;99.90;;;;;;5038308;28;20299;-89
2021/11/26 09:06:41;;;;;;;7.60;6.10;;;7.90;99.90;;;;;;5056489;28;20208;-88
2021/11/26 09:09:13;;;;;;;9.73;6.00;;;7.90;99.90;;;;;;5041853;28;20223;-89
2021/11/26 09:11:45;;;;;;;6.50;5.43;;;7.90;99.90;;;;;;5021870;28;20288;-88
2021/11/26 09:14:19;;;;;;;5.43;4.93;;;7.90;99.90;;;;;;5036606;28;20218;-88
2021/11/26 09:16:52;;;;;;;6.70;5.00;;;8.00;99.90;;;;;;5036777;28;20233;-89
2021/11/26 09:19:27;;;;;;;5.80;4.63;;;8.00;99.90;;;;;;5037880;28;20220;-88
2021/11/26 09:22:00;;;;;;;6.33;4.70;;;8.00;99.90;;;;;;5037476;28;20339;-88
2021/11/26 09:24:33;;;;;;;5.00;4.40;;;8.00;99.90;;;;;;5035797;28;20213;-89
2021/11/26 09:27:06;;;;;;;5.83;4.50;;;8.00;99.90;;;;;;5017127;28;20216;-89
2021/11/26 09:29:41;;;;;;;5.67;5.17;;;8.00;99.90;;;;;;5018374;28;20209;-89
2021/11/26 09:32:14;;;;;;;6.37;4.40;;;8.00;99.90;;;;;;5017618;28;20227;-89
2021/11/26 09:34:50;;;;;;;3.93;3.53;;;8.00;99.90;;;;;;5018293;28;20680;-89
2021/11/26 09:37:23;;;;;;;4.27;3.70;;;8.00;99.90;;;;;;5028653;28;20212;-88
2021/11/26 09:39:56;;;;;;;5.03;3.50;;;8.10;99.90;;;;;;5037058;28;20728;-90
2021/11/26 09:42:30;;;;;;;3.97;3.60;;;8.10;99.90;;;;;;5037261;28;20208;-89
2021/11/26 09:45:02;;;;;;;3.30;3.00;;;8.10;99.90;;;;;;5035728;28;20208;-88
2021/11/26 09:47:38;;;;;;;3.70;2.87;;;8.20;99.90;;;;;;5036510;28;20242;-87
2021/11/26 09:50:13;;;;;;;3.90;3.20;;;8.20;99.90;;;;;;5037167;28;20568;-87
2021/11/26 09:52:48;;;;;;;3.87;3.17;;;8.20;99.90;;;;;;5037402;28;20209;-88
2021/11/26 09:55:21;;;;;;;3.37;3.00;;;8.20;99.90;;;;;;5036478;28;20213;-88
2021/11/26 09:57:54;;;;;;;3.33;3.03;;;8.20;99.90;;;;;;5044308;28;20239;-89
2021/11/26 10:00:26;;;;;;;3.40;3.10;;;8.20;99.90;;;;;;5046019;28;20290;-89
2021/11/26 10:03:00;;;;;;;2.63;2.37;;;8.30;99.90;;;;;;5047696;28;20231;-88
2021/11/26 10:05:39;;;;;;;3.33;2.93;;;8.30;99.90;;;;;;5047040;28;20222;-89
2021/11/26 10:08:13;;;;;;;2.80;2.60;;;8.30;99.90;;;;;;5037126;28;20222;-89
2021/11/26 10:10:45;;;;;;;2.43;2.23;;;8.40;99.90;;;;;;5036650;28;20212;-87
2021/11/26 10:13:20;;;;;;;3.53;2.70;;;8.40;99.90;;;;;;5037646;28;20209;-89
2021/11/26 10:15:54;;;;;;;3.17;2.37;;;8.40;99.90;;;;;;5038964;28;20240;-89
2021/11/26 10:18:29;;;;;;;2.67;2.43;;;8.40;99.90;;;;;;5037953;28;20653;-87
2021/11/26 10:21:06;;;;;;;2.40;2.20;;;8.50;99.90;;;;;;5041414;28;20246;-88
2021/11/26 10:23:40;;;;;;;3.23;2.53;;;8.50;99.90;;;;;;5036501;28;20216;-90
2021/11/26 10:26:17;;;;;;;2.73;2.37;;;8.50;99.90;;;;;;5017883;28;20219;-89
2021/11/26 10:28:52;;;;;;;3.20;2.90;;;8.50;99.90;;;;;;5017210;28;20221;-89
2021/11/26 10:31:31;;;;;;;3.37;3.07;;;8.60;99.90;;;;;;5016755;28;20228;-89
2021/11/26 10:34:28;;;;;;;2.83;2.57;;;8.50;99.90;;;;;;5021618;28;20258;-88
2021/11/26 10:37:06;;;;;;;2.70;2.33;;;8.60;99.90;;;;;;5036369;28;20286;-88
2021/11/26 10:39:41;;;;;;;4.80;2.67;;;8.60;99.90;;;;;;5036457;28;20672;-89
2021/11/26 10:42:13;;;;;;;3.43;2.40;;;8.60;99.90;;;;;;5035698;28;20240;-89
2021/11/26 10:44:57;;;;;;;2.73;2.53;;;8.70;99.90;;;;;;5039658;28;20203;-89
2021/11/26 10:59:01;;;;;;;2.20;2.00;;;8.80;99.90;;;;;;5035313;28;20235;-88
2021/11/26 11:01:45;;;;;;;2.03;1.60;;;8.80;99.90;;;;;;5034010;28;20236;-89
2021/11/26 11:04:18;;;;;;;2.23;1.83;;;8.80;99.90;;;;;;5025759;28;20213;-88
2021/11/26 11:06:59;;;;;;;1.67;1.50;;;8.80;99.90;;;;;;5023885;28;20198;-89
2021/11/26 11:09:45;;;;;;;3.23;1.63;;;8.90;99.90;;;;;;5031152;28;20214;-89
2021/11/26 11:12:18;;;;;;;2.90;1.30;;;8.90;99.90;;;;;;5030226;28;20218;-89
2021/11/26 11:14:58;;;;;;;2.60;1.60;;;8.90;99.90;;;;;;5048913;28;20207;-87
2021/11/26 11:17:30;;;;;;;1.50;1.30;;;8.90;99.90;;;;;;5054955;28;20456;-86
2021/11/26 11:20:06;;;;;;;1.43;1.20;;;8.90;99.90;;;;;;5054990;28;20244;-87
2021/11/26 11:22:43;;;;;;;1.30;1.20;;;9.00;99.90;;;;;;5054845;28;20212;-88
2021/11/26 11:25:24;;;;;;;1.93;1.40;;;9.00;99.90;;;;;;5042613;28;20576;-89
2021/11/26 11:27:58;;;;;;;2.13;1.30;;;9.00;99.90;;;;;;5041938;28;20238;-89
2021/11/26 11:30:31;;;;;;;4.60;3.37;;;9.10;99.90;;;;;;5043413;28;20227;-88
2021/11/26 11:33:04;;;;;;;1.40;1.00;;;9.10;99.90;;;;;;5044926;28;20205;-89
2021/11/26 11:35:38;;;;;;;0.83;0.80;;;9.10;99.90;;;;;;5036499;28;20224;-89
2021/11/26 11:38:13;;;;;;;16.90;12.10;;;9.10;99.90;;;;;;5041954;28;20291;-90
2021/11/26 11:40:48;;;;;;;1.37;1.33;;;9.20;99.90;;;;;;5041970;28;20235;-90
2021/11/26 11:43:23;;;;;;;1.37;1.27;;;9.20;99.90;;;;;;5041764;28;20245;-89
2021/11/26 11:46:03;;;;;;;3.40;2.30;;;9.30;99.90;;;;;;5040990;28;20204;-89
2021/11/26 11:48:37;;;;;;;1.10;1.03;;;9.20;99.90;;;;;;5042001;28;20209;-89
2021/11/26 11:51:10;;;;;;;1.80;0.70;;;9.30;99.90;;;;;;5041324;28;20228;-89
2021/11/26 11:53:42;;;;;;;1.57;1.40;;;9.30;99.90;;;;;;5043113;28;20335;-89
2021/11/26 11:56:20;;;;;;;1.93;1.83;;;9.30;99.90;;;;;;5041640;28;20212;-89
2021/11/26 11:58:54;;;;;;;7.10;3.70;;;9.30;99.90;;;;;;5042139;28;20227;-90
2021/11/26 12:01:30;;;;;;;4.07;3.03;;;9.30;99.90;;;;;;5041375;28;20307;-90
2021/11/26 12:04:16;;;;;;;2.53;1.23;;;9.40;99.90;;;;;;5040303;28;20232;-89
2021/11/26 12:06:50;;;;;;;1.23;1.00;;;9.40;99.90;;;;;;5040131;28;20243;-89
2021/11/26 12:09:30;;;;;;;1.10;1.00;;;9.40;99.90;;;;;;5040214;28;20216;-89
2021/11/26 12:12:14;;;;;;;1.27;1.03;;;9.40;99.90;;;;;;5043936;28;20229;-89
2021/11/26 12:14:51;;;;;;;1.10;1.00;;;9.40;99.90;;;;;;5040189;28;20220;-89
2021/11/26 12:17:33;;;;;;;1.30;1.20;;;9.40;99.90;;;;;;5041084;28;20211;-88
2021/11/26 12:20:11;;;;;;;1.20;1.03;;;9.40;99.90;;;;;;5039607;28;20247;-88
2021/11/26 12:22:48;;;;;;;1.03;1.00;;;9.40;99.90;;;;;;5040559;28;20622;-88
2021/11/26 12:25:31;;;;;;;2.53;1.30;;;9.40;99.90;;;;;;5039254;28;20235;-89
2021/11/26 12:28:08;;;;;;;1.53;1.10;;;9.40;99.90;;;;;;5039746;28;20220;-89
2021/11/26 12:30:43;;;;;;;0.80;0.80;;;9.40;99.90;;;;;;5040008;28;20199;-88
2021/11/26 12:33:22;;;;;;;7.70;4.67;;;9.40;99.90;;;;;;5040079;28;20208;-89
2021/11/26 12:36:15;;;;;;;1.73;1.63;;;9.50;99.90;;;;;;5038736;28;20217;-89
2021/11/26 12:38:51;;;;;;;1.60;1.30;;;9.40;99.90;;;;;;5039989;28;20244;-89
2021/11/26 12:41:33;;;;;;;33.23;8.93;;;9.40;99.90;;;;;;5038878;28;20239;-90
2021/11/26 12:44:09;;;;;;;2.33;1.50;;;9.40;99.90;;;;;;5039954;28;20218;-89
2021/11/26 12:46:42;;;;;;;1.50;1.30;;;9.40;99.90;;;;;;5038940;28;20204;-90
2021/11/26 12:52:10;;;;;;;1.63;1.43;;;9.40;99.90;;;;;;5018280;28;20329;-89
2021/11/26 12:54:44;;;;;;;3.00;1.70;;;9.40;99.90;;;;;;5019251;28;20299;-89
2021/11/26 12:57:21;;;;;;;1.50;1.40;;;9.40;99.90;;;;;;5018069;28;20241;-88
2021/11/26 12:59:59;;;;;;;1.50;1.40;;;9.40;99.90;;;;;;5018541;28;20213;-89
2021/11/26 13:02:35;;;;;;;1.37;1.27;;;9.40;99.90;;;;;;5030047;28;20215;-90
2021/11/26 13:05:11;;;;;;;1.50;1.40;;;9.50;99.90;;;;;;5038558;28;20675;-90
2021/11/26 13:07:47;;;;;;;1.60;1.50;;;9.50;99.90;;;;;;5039193;28;20211;-90
2021/11/26 13:10:23;;;;;;;1.53;1.43;;;9.50;99.90;;;;;;5038744;28;20581;-89
2021/11/26 13:12:57;;;;;;;1.43;1.33;;;9.50;99.90;;;;;;5045897;28;20227;-89
2021/11/26 13:15:34;;;;;;;3.30;2.43;;;9.50;99.90;;;;;;5051659;28;20549;-90
2021/11/26 13:18:15;;;;;;;1.30;1.20;;;9.50;99.90;;;;;;5053796;28;20625;-89
2021/11/26 13:20:50;;;;;;;1.90;1.30;;;9.50;99.90;;;;;;5041129;28;20229;-88
2021/11/26 13:23:24;;;;;;;1.20;1.10;;;9.50;99.90;;;;;;5039387;28;20212;-89
2021/11/26 13:25:59;;;;;;;2.47;1.80;;;9.50;99.90;;;;;;5049481;28;20339;-88
2021/11/26 13:28:34;;;;;;;2.23;2.13;;;9.50;99.90;;;;;;5052150;28;20208;-89
2021/11/26 13:31:25;;;;;;;1.47;1.37;;;9.50;99.90;;;;;;5055061;28;20201;-89
2021/11/26 13:33:59;;;;;;;1.57;1.30;;;9.50;99.90;;;;;;5047883;28;20219;-90
2021/11/26 13:36:33;;;;;;;1.33;1.23;;;9.50;99.90;;;;;;5019077;28;20547;-89
2021/11/26 13:39:09;;;;;;;1.90;1.80;;;9.50;99.90;;;;;;5018642;28;20198;-88
2021/11/26 13:41:44;;;;;;;1.40;1.30;;;9.50;99.90;;;;;;5018376;28;20248;-88
2021/11/26 13:44:19;;;;;;;1.67;1.30;;;9.50;99.90;;;;;;5016643;28;20209;-89
2021/11/26 13:47:01;;;;;;;2.90;2.70;;;9.50;99.90;;;;;;5017953;28;20213;-89
2021/11/26 13:49:35;;;;;;;1.97;1.30;;;9.50;99.90;;;;;;5018059;28;20296;-90
2021/11/26 13:52:10;;;;;;;1.80;1.37;;;9.50;99.90;;;;;;5017620;28;20634;-89
2021/11/26 13:55:02;;;;;;;1.20;1.10;;;9.50;99.90;;;;;;5017906;28;20267;-90
2021/11/26 13:57:35;;;;;;;1.20;1.10;;;9.50;99.90;;;;;;5024408;28;20236;-90
2021/11/26 14:00:14;;;;;;;2.77;1.47;;;9.50;99.90;;;;;;5037648;28;20219;-89